Time;durP1;ratioP1;P1;durP2;ratioP2;P2;SDS_P1;SDS_P2;PMS_P1;PMS_P2;Temp;Humidity;BMP_temperature;BMP_pressure;BME280_temperature;BME280_humidity;BME280_pressure;Samples;Min_cycle;Max_cycle;Signal;HPM_P1;HPM_P2
2022/04/26 03:38:34;;;;;;;43.97;20.73;;;;;;;;;;5109326;28;20518;-80
2022/04/26 03:41:00;;;;;;;42.00;18.63;;;;;;;;;;5109215;28;20016;-76
2022/04/26 03:43:28;;;;;;;41.23;20.03;;;;;;;;;;5090450;28;20437;-78
2022/04/26 03:45:53;;;;;;;40.27;21.47;;;;;;;;;;5087277;28;20028;-79
2022/04/26 03:48:19;;;;;;;57.77;22.50;;;;;;;;;;5088485;28;20384;-77
2022/04/26 03:50:45;;;;;;;44.50;20.30;;;;;;;;;;5086974;28;20020;-77
2022/04/26 03:53:11;;;;;;;44.70;19.33;;;;;;;;;;5087442;28;20016;-76
2022/04/26 03:55:37;;;;;;;45.73;19.93;;;;;;;;;;5087457;28;20558;-76
2022/04/26 03:58:03;;;;;;;46.83;20.60;;;;;;;;;;5105743;28;20035;-75
2022/04/26 04:00:29;;;;;;;38.67;18.37;;;;;;;;;;5108382;28;20050;-78
2022/04/26 04:02:54;;;;;;;47.93;19.40;;;;;;;;;;5107691;28;20028;-78
2022/04/26 04:05:22;;;;;;;49.50;20.77;;;;;;;;;;5107462;28;20069;-80
2022/04/26 04:07:47;;;;;;;40.17;19.87;;;;;;;;;;5109180;28;20478;-77
2022/04/26 04:10:13;;;;;;;39.03;17.53;;;;;;;;;;5107357;28;20092;-78
2022/04/26 04:12:38;;;;;;;42.07;19.90;;;;;;;;;;5092412;28;20051;-77
2022/04/26 04:15:04;;;;;;;40.20;19.33;;;;;;;;;;5087534;28;20491;-77
2022/04/26 04:17:31;;;;;;;41.43;19.10;;;;;;;;;;5087457;28;20495;-77
2022/04/26 04:19:57;;;;;;;35.63;18.10;;;;;;;;;;5087233;28;20035;-77
2022/04/26 04:22:23;;;;;;;39.43;18.00;;;;;;;;;;5104313;28;20024;-78
2022/04/26 04:24:49;;;;;;;43.33;18.57;;;;;;;;;;5096414;28;20100;-79
2022/04/26 04:27:14;;;;;;;38.23;17.83;;;;;;;;;;5094151;28;20020;-78
2022/04/26 04:29:40;;;;;;;36.67;18.50;;;;;;;;;;5093927;28;20498;-78
2022/04/26 04:32:06;;;;;;;49.60;22.30;;;;;;;;;;5093988;28;20028;-77
2022/04/26 04:34:31;;;;;;;36.33;16.83;;;;;;;;;;5077500;28;20028;-78
2022/04/26 04:36:57;;;;;;;40.10;16.83;;;;;;;;;;5094230;28;20024;-76
2022/04/26 04:39:23;;;;;;;36.67;17.40;;;;;;;;;;5093912;28;20024;-79
2022/04/26 04:41:52;;;;;;;40.00;19.57;;;;;;;;;;5086437;28;20119;-79
2022/04/26 04:44:19;;;;;;;32.53;17.70;;;;;;;;;;5073086;28;20043;-78
2022/04/26 04:46:45;;;;;;;34.73;17.63;;;;;;;;;;5073064;28;20387;-78
2022/04/26 04:49:11;;;;;;;36.13;17.37;;;;;;;;;;5055918;28;20032;-78
2022/04/26 04:51:37;;;;;;;35.83;17.37;;;;;;;;;;5072893;28;20085;-78
2022/04/26 04:54:05;;;;;;;37.13;17.13;;;;;;;;;;5072715;28;20031;-77
2022/04/26 04:56:32;;;;;;;37.17;16.97;;;;;;;;;;5072679;28;20064;-77
2022/04/26 04:58:57;;;;;;;36.13;16.47;;;;;;;;;;5072559;28;20032;-77
2022/04/26 05:01:23;;;;;;;35.23;16.17;;;;;;;;;;5074459;28;20025;-77
2022/04/26 05:03:50;;;;;;;28.03;14.93;;;;;;;;;;5055975;28;20028;-78
2022/04/26 05:06:16;;;;;;;31.33;15.47;;;;;;;;;;5071906;28;20070;-77
2022/04/26 05:08:43;;;;;;;28.57;15.47;;;;;;;;;;5075992;28;20056;-78
2022/04/26 05:11:10;;;;;;;31.90;16.43;;;;;;;;;;5091371;28;20040;-78
2022/04/26 05:13:36;;;;;;;31.23;15.43;;;;;;;;;;5071184;28;20044;-76
2022/04/26 05:16:01;;;;;;;29.00;16.23;;;;;;;;;;5054696;28;20174;-79
2022/04/26 05:18:28;;;;;;;33.43;17.37;;;;;;;;;;5073037;28;20533;-78
2022/04/26 05:20:54;;;;;;;33.13;15.33;;;;;;;;;;5076287;28;20016;-77
2022/04/26 05:26:07;;;;;;;32.83;16.30;;;;;;;;;;5074804;28;20073;-77
2022/04/26 05:28:32;;;;;;;32.37;15.57;;;;;;;;;;5091322;28;20479;-78
2022/04/26 05:31:00;;;;;;;36.30;16.10;;;;;;;;;;5092567;28;20026;-78
2022/04/26 05:33:27;;;;;;;34.03;15.90;;;;;;;;;;5091751;28;20020;-77
2022/04/26 05:35:53;;;;;;;30.30;15.20;;;;;;;;;;5091967;28;20039;-79
2022/04/26 05:38:19;;;;;;;34.40;15.97;;;;;;;;;;5091655;28;20506;-79
2022/04/26 05:40:45;;;;;;;37.27;14.97;;;;;;;;;;5091606;28;20023;-77
2022/04/26 05:43:11;;;;;;;32.03;15.93;;;;;;;;;;5093056;28;20056;-78
2022/04/26 05:45:36;;;;;;;32.63;15.20;;;;;;;;;;5091762;28;20028;-79
2022/04/26 05:48:03;;;;;;;30.20;15.27;;;;;;;;;;5090127;28;20081;-79
2022/04/26 05:50:28;;;;;;;28.20;14.83;;;;;;;;;;5090263;28;20020;-77
2022/04/26 05:52:56;;;;;;;32.80;16.40;;;;;;;;;;5092732;28;20035;-78
2022/04/26 05:55:22;;;;;;;31.40;17.03;;;;;;;;;;5091907;28;20493;-78
2022/04/26 05:57:48;;;;;;;26.43;14.37;;;;;;;;;;5092502;28;20028;-79
2022/04/26 06:00:14;;;;;;;29.17;13.73;;;;;;;;;;5074953;28;20038;-78
2022/04/26 06:02:41;;;;;;;33.47;15.20;;;;;;;;;;5091996;28;20070;-78
2022/04/26 06:05:07;;;;;;;33.67;15.93;;;;;;;;;;5090392;28;20020;-79
2022/04/26 06:07:33;;;;;;;29.27;14.17;;;;;;;;;;5088360;28;20055;-79
2022/04/26 06:09:59;;;;;;;54.27;39.43;;;;;;;;;;5085803;28;20028;-78
2022/04/26 06:12:28;;;;;;;29.73;14.73;;;;;;;;;;5081209;28;20056;-78
2022/04/26 06:14:59;;;;;;;31.03;15.23;;;;;;;;;;5082413;28;20348;-78
2022/04/26 06:17:25;;;;;;;41.57;20.33;;;;;;;;;;5079953;28;20429;-78
2022/04/26 06:19:51;;;;;;;34.93;14.97;;;;;;;;;;5073258;28;20032;-82
2022/04/26 06:22:17;;;;;;;36.67;17.47;;;;;;;;;;5063136;28;20028;-80
2022/04/26 06:24:42;;;;;;;32.67;16.57;;;;;;;;;;5082771;28;20032;-79
2022/04/26 06:27:08;;;;;;;29.20;16.20;;;;;;;;;;5085675;28;20035;-81
2022/04/26 06:29:33;;;;;;;34.10;16.13;;;;;;;;;;5092203;28;20062;-80
2022/04/26 06:31:59;;;;;;;38.47;15.97;;;;;;;;;;5088174;28;20036;-79
2022/04/26 06:34:25;;;;;;;35.83;17.40;;;;;;;;;;5087637;28;20098;-78
2022/04/26 06:36:51;;;;;;;54.93;35.80;;;;;;;;;;5081498;28;20139;-79
2022/04/26 06:39:23;;;;;;;31.20;17.13;;;;;;;;;;5090083;28;20032;-80
2022/04/26 06:41:49;;;;;;;35.33;16.60;;;;;;;;;;5082061;28;20018;-81
2022/04/26 06:44:14;;;;;;;37.77;15.77;;;;;;;;;;5079328;28;20024;-81
2022/04/26 06:46:40;;;;;;;33.30;16.63;;;;;;;;;;5086507;28;20044;-81
2022/04/26 06:49:07;;;;;;;41.13;17.43;;;;;;;;;;5087130;28;20047;-79
2022/04/26 06:51:35;;;;;;;31.00;15.57;;;;;;;;;;5089344;28;20131;-81
2022/04/26 06:54:01;;;;;;;33.50;17.07;;;;;;;;;;5089205;28;20652;-82
2022/04/26 06:56:31;;;;;;;31.33;16.13;;;;;;;;;;5087739;28;20105;-81
2022/04/26 06:58:56;;;;;;;33.93;16.57;;;;;;;;;;5087523;28;20020;-82
2022/04/26 07:01:22;;;;;;;38.20;18.13;;;;;;;;;;5084409;28;20020;-82
2022/04/26 07:03:48;;;;;;;34.57;16.63;;;;;;;;;;5088241;28;20123;-80
2022/04/26 07:06:18;;;;;;;33.40;16.40;;;;;;;;;;5088942;28;20036;-80
2022/04/26 07:08:47;;;;;;;27.17;15.57;;;;;;;;;;5090098;28;20433;-81
2022/04/26 07:11:15;;;;;;;29.00;16.33;;;;;;;;;;5086985;28;20067;-82
2022/04/26 07:13:48;;;;;;;29.93;15.20;;;;;;;;;;5084936;28;20518;-80
2022/04/26 07:16:14;;;;;;;28.97;17.17;;;;;;;;;;5084523;28;20032;-81
2022/04/26 07:18:40;;;;;;;28.20;16.70;;;;;;;;;;5086186;28;20032;-81
2022/04/26 07:21:06;;;;;;;28.03;15.97;;;;;;;;;;5084783;28;20054;-80
2022/04/26 07:23:31;;;;;;;29.97;16.13;;;;;;;;;;5083075;28;20028;-81
2022/04/26 07:25:57;;;;;;;29.63;15.93;;;;;;;;;;5086262;28;20104;-81
2022/04/26 07:28:43;;;;;;;25.43;14.27;;;;;;;;;;5083885;28;20082;-84
2022/04/26 07:31:35;;;;;;;30.20;15.20;;;;;;;;;;5088752;28;20024;-81
2022/04/26 07:34:29;;;;;;;33.88;17.33;;;;;;;;;;5084388;28;20036;-80
2022/04/26 07:37:04;;;;;;;25.97;15.43;;;;;;;;;;5086088;28;20387;-79
2022/04/26 07:39:36;;;;;;;25.80;16.03;;;;;;;;;;5085420;28;20061;-78
2022/04/26 07:42:10;;;;;;;27.35;15.20;;;;;;;;;;5086049;28;20036;-82
2022/04/26 07:44:48;;;;;;;30.17;15.87;;;;;;;;;;5082989;28;20047;-82
2022/04/26 07:47:17;;;;;;;26.90;14.70;;;;;;;;;;5085302;28;20070;-81
2022/04/26 07:49:53;;;;;;;32.20;16.17;;;;;;;;;;5085930;28;20028;-82
2022/04/26 07:52:23;;;;;;;24.30;15.67;;;;;;;;;;5084075;28;20109;-82
2022/04/26 07:54:56;;;;;;;29.77;16.53;;;;;;;;;;5088173;28;20032;-79
2022/04/26 07:57:21;;;;;;;;;;;;;;;;;;5070070;28;20020;-82
2022/04/26 07:59:47;;;;;;;32.43;16.33;;;;;;;;;;5080740;28;20370;-84
2022/04/26 08:05:14;;;;;;;25.60;15.10;;;;;;;;;;5088338;28;20047;-84
2022/04/26 08:07:52;;;;;;;25.17;14.60;;;;;;;;;;5086221;28;20587;-82
2022/04/26 08:10:17;;;;;;;22.97;14.40;;;;;;;;;;5083496;28;20161;-83
2022/04/26 08:12:43;;;;;;;25.03;14.93;;;;;;;;;;5084954;28;20154;-81
2022/04/26 08:15:11;;;;;;;26.55;13.95;;;;;;;;;;5087239;28;20550;-80
2022/04/26 08:17:37;;;;;;;21.70;13.00;;;;;;;;;;5069251;28;20032;-80
2022/04/26 08:20:06;;;;;;;26.13;14.30;;;;;;;;;;5066083;28;20455;-80
2022/04/26 08:22:31;;;;;;;25.10;13.30;;;;;;;;;;5085763;28;20288;-83
2022/04/26 08:27:41;;;;;;;24.00;12.85;;;;;;;;;;5085521;28;20039;-78
2022/04/26 08:30:07;;;;;;;20.20;11.38;;;;;;;;;;5084899;28;20460;-83
2022/04/26 08:32:44;;;;;;;23.20;12.73;;;;;;;;;;5082442;28;20093;-81
2022/04/26 08:35:17;;;;;;;22.17;11.13;;;;;;;;;;5089138;28;20055;-81
2022/04/26 08:37:45;;;;;;;19.88;10.68;;;;;;;;;;5084745;28;20036;-78
2022/04/26 08:40:12;;;;;;;21.55;13.40;;;;;;;;;;5087997;28;20020;-81
2022/04/26 08:42:40;;;;;;;24.50;13.82;;;;;;;;;;5088294;28;20316;-82
2022/04/26 08:45:08;;;;;;;24.20;14.30;;;;;;;;;;5087994;28;20131;-79
2022/04/26 08:53:04;;;;;;;28.63;14.13;;;;;;;;;;5085324;28;20047;-83
2022/04/26 08:55:40;;;;;;;29.02;14.15;;;;;;;;;;5090580;28;20051;-81
2022/04/26 08:58:06;;;;;;;23.10;14.45;;;;;;;;;;5086814;28;20028;-81
2022/04/26 09:00:32;;;;;;;25.75;12.90;;;;;;;;;;5085709;28;20039;-80
2022/04/26 09:03:04;;;;;;;22.63;12.00;;;;;;;;;;5091208;28;20028;-80
2022/04/26 09:05:30;;;;;;;;;;;;;;;;;;5093174;28;20076;-82
2022/04/26 09:08:03;;;;;;;20.58;10.40;;;;;;;;;;5089282;28;19916;-82
2022/04/26 09:10:29;;;;;;;20.00;10.90;;;;;;;;;;5084664;28;20035;-80
2022/04/26 09:13:09;;;;;;;18.85;11.60;;;;;;;;;;5084952;28;20408;-80
2022/04/26 09:15:41;;;;;;;17.85;11.00;;;;;;;;;;5086809;28;20028;-82
2022/04/26 09:18:29;;;;;;;11.68;7.65;;;;;;;;;;5086232;28;20062;-82
2022/04/26 09:21:17;;;;;;;11.50;7.05;;;;;;;;;;5086323;28;20115;-83
2022/04/26 09:24:09;;;;;;;11.75;7.55;;;;;;;;;;5085383;28;20411;-82
2022/04/26 09:26:39;;;;;;;14.27;8.73;;;;;;;;;;5083635;28;20047;-81
2022/04/26 09:29:17;;;;;;;14.93;9.20;;;;;;;;;;5085367;28;20491;-80
2022/04/26 09:31:43;;;;;;;14.40;9.07;;;;;;;;;;5080420;28;20080;-79
2022/04/26 09:34:13;;;;;;;13.43;9.68;;;;;;;;;;5084165;28;20130;-82
2022/04/26 09:36:44;;;;;;;12.52;8.05;;;;;;;;;;5087413;28;20041;-81
2022/04/26 09:39:16;;;;;;;17.33;9.18;;;;;;;;;;5087358;28;20428;-82
2022/04/26 09:41:49;;;;;;;13.75;8.02;;;;;;;;;;5083893;28;20028;-80
2022/04/26 09:44:15;;;;;;;13.00;7.68;;;;;;;;;;5079716;28;20527;-81
2022/04/26 09:46:40;;;;;;;15.57;10.98;;;;;;;;;;5081886;28;20043;-79
2022/04/26 09:49:09;;;;;;;13.55;9.00;;;;;;;;;;5081392;28;20871;-79
2022/04/26 09:51:36;;;;;;;13.93;8.23;;;;;;;;;;5086997;28;20043;-80
2022/04/26 09:54:02;;;;;;;14.05;9.18;;;;;;;;;;5083856;28;20032;-79
2022/04/26 09:56:30;;;;;;;13.73;8.75;;;;;;;;;;5083662;28;20612;-81
2022/04/26 09:58:59;;;;;;;13.05;8.65;;;;;;;;;;5084941;28;20062;-82
2022/04/26 10:01:32;;;;;;;12.98;8.70;;;;;;;;;;5085786;28;20372;-82
2022/04/26 10:04:03;;;;;;;14.18;8.52;;;;;;;;;;5083538;28;20067;-79
2022/04/26 10:06:43;;;;;;;12.18;8.20;;;;;;;;;;5065959;28;20097;-83
2022/04/26 10:09:10;;;;;;;14.43;7.68;;;;;;;;;;5083984;28;20036;-78
2022/04/26 10:11:36;;;;;;;10.63;7.65;;;;;;;;;;5086320;28;20061;-79
2022/04/26 10:14:05;;;;;;;12.52;6.90;;;;;;;;;;5068454;28;20059;-81
2022/04/26 10:16:31;;;;;;;16.50;8.15;;;;;;;;;;5087092;28;20093;-79
2022/04/26 10:19:07;;;;;;;12.20;7.53;;;;;;;;;;5066333;28;20043;-81
2022/04/26 10:21:35;;;;;;;13.32;7.78;;;;;;;;;;5083623;28;20103;-82
2022/04/26 10:24:04;;;;;;;11.43;7.60;;;;;;;;;;5083588;28;20082;-80
2022/04/26 10:26:31;;;;;;;13.00;6.30;;;;;;;;;;5084593;28;20031;-81
2022/04/26 10:29:02;;;;;;;10.50;7.38;;;;;;;;;;5084854;28;20039;-76
2022/04/26 10:31:48;;;;;;;11.60;8.13;;;;;;;;;;5085753;28;20445;-80
2022/04/26 10:34:16;;;;;;;12.90;8.02;;;;;;;;;;5084095;28;20380;-79
2022/04/26 10:36:43;;;;;;;14.00;7.47;;;;;;;;;;5083354;28;20042;-79
2022/04/26 10:39:15;;;;;;;12.07;7.28;;;;;;;;;;5086228;28;20483;-81
2022/04/26 10:41:46;;;;;;;10.77;7.47;;;;;;;;;;5089123;28;20499;-83
2022/04/26 10:44:15;;;;;;;10.90;7.28;;;;;;;;;;5087654;28;20048;-79
2022/04/26 10:46:58;;;;;;;9.43;6.65;;;;;;;;;;5089050;28;20571;-82
2022/04/26 10:49:33;;;;;;;11.05;5.95;;;;;;;;;;5087125;28;20143;-81
2022/04/26 10:52:24;;;;;;;11.52;6.18;;;;;;;;;;5070045;28;20071;-81
2022/04/26 10:54:53;;;;;;;9.77;5.60;;;;;;;;;;5079882;28;20513;-81
2022/04/26 10:57:23;;;;;;;8.55;5.20;;;;;;;;;;5088753;28;20032;-81
2022/04/26 10:59:56;;;;;;;7.07;4.43;;;;;;;;;;5096911;28;20276;-81
2022/04/26 11:02:25;;;;;;;5.90;3.65;;;;;;;;;;5084057;28;20853;-80
2022/04/26 11:05:01;;;;;;;6.55;4.10;;;;;;;;;;5088015;28;20047;-82
2022/04/26 11:07:29;;;;;;;5.07;4.07;;;;;;;;;;5084022;28;20437;-82
2022/04/26 11:09:57;;;;;;;9.20;4.40;;;;;;;;;;5070385;28;20043;-81
2022/04/26 11:12:38;;;;;;;7.38;5.07;;;;;;;;;;5089565;28;20048;-80
2022/04/26 11:15:10;;;;;;;5.60;3.83;;;;;;;;;;5084793;28;20106;-81
2022/04/26 11:17:37;;;;;;;8.15;5.10;;;;;;;;;;5086616;28;20027;-79
2022/04/26 11:20:25;;;;;;;9.23;5.35;;;;;;;;;;5085109;28;20028;-79
2022/04/26 11:22:55;;;;;;;6.50;4.22;;;;;;;;;;5086170;28;20040;-76
2022/04/26 11:28:13;;;;;;;5.88;3.88;;;;;;;;;;5085704;28;20038;-80
2022/04/26 11:30:44;;;;;;;5.05;3.75;;;;;;;;;;5083667;28;20036;-79
2022/04/26 11:33:18;;;;;;;5.72;3.47;;;;;;;;;;5086737;28;20036;-82
2022/04/26 11:35:50;;;;;;;5.40;4.43;;;;;;;;;;5083963;28;20032;-82
2022/04/26 11:38:16;;;;;;;6.35;3.83;;;;;;;;;;5068669;28;20115;-81
2022/04/26 11:40:48;;;;;;;3.95;2.83;;;;;;;;;;5085594;28;20028;-80
2022/04/26 11:43:19;;;;;;;4.07;2.58;;;;;;;;;;5086727;28;20020;-80
2022/04/26 11:45:52;;;;;;;3.05;2.65;;;;;;;;;;5084501;28;20028;-78
2022/04/26 11:48:19;;;;;;;3.75;3.25;;;;;;;;;;5090544;28;20039;-79
2022/04/26 11:50:48;;;;;;;4.78;3.13;;;;;;;;;;5090760;28;20680;-77
2022/04/26 11:53:16;;;;;;;3.92;2.55;;;;;;;;;;5087130;28;20039;-80
2022/04/26 11:55:56;;;;;;;4.43;3.03;;;;;;;;;;5084870;28;20057;-80
2022/04/26 11:58:22;;;;;;;5.68;3.50;;;;;;;;;;5086654;28;20046;-82
2022/04/26 12:00:57;;;;;;;6.75;3.85;;;;;;;;;;5079994;28;20422;-77
2022/04/26 12:03:25;;;;;;;5.30;3.47;;;;;;;;;;5085541;28;20034;-79
2022/04/26 12:05:58;;;;;;;5.18;3.63;;;;;;;;;;5080595;28;20027;-78
2022/04/26 12:08:26;;;;;;;5.38;3.83;;;;;;;;;;5082317;28;20039;-78
2022/04/26 12:10:53;;;;;;;3.40;3.10;;;;;;;;;;5083409;28;20024;-80
2022/04/26 12:13:30;;;;;;;3.72;2.95;;;;;;;;;;5084852;28;20660;-79
2022/04/26 12:16:12;;;;;;;3.55;2.80;;;;;;;;;;5086211;28;20027;-79
2022/04/26 12:18:55;;;;;;;3.53;2.78;;;;;;;;;;5084512;28;20028;-80
2022/04/26 12:21:23;;;;;;;3.55;3.05;;;;;;;;;;5083675;28;21049;-81
2022/04/26 12:24:12;;;;;;;3.70;3.05;;;;;;;;;;5082703;28;20027;-78
2022/04/26 12:27:02;;;;;;;4.90;2.70;;;;;;;;;;5084522;28;20035;-81
2022/04/26 12:29:30;;;;;;;2.65;2.40;;;;;;;;;;5085054;28;20032;-79
2022/04/26 12:31:57;;;;;;;3.30;2.28;;;;;;;;;;5082912;28;20020;-79
2022/04/26 12:34:29;;;;;;;2.38;2.15;;;;;;;;;;5083225;28;20031;-81
2022/04/26 12:37:08;;;;;;;5.90;2.75;;;;;;;;;;5084242;28;20525;-80
2022/04/26 12:39:44;;;;;;;3.30;2.45;;;;;;;;;;5082053;28;20135;-77
2022/04/26 12:42:13;;;;;;;5.93;2.97;;;;;;;;;;5082258;28;20024;-80
2022/04/26 12:44:59;;;;;;;3.28;2.53;;;;;;;;;;5077462;28;20416;-82
2022/04/26 12:50:33;;;;;;;3.85;2.85;;;;;;;;;;5084049;28;20057;-77
2022/04/26 12:53:19;;;;;;;2.83;2.40;;;;;;;;;;5087970;28;20035;-77
2022/04/26 12:55:47;;;;;;;3.70;2.00;;;;;;;;;;5084045;28;20383;-78
2022/04/26 12:58:15;;;;;;;2.63;2.42;;;;;;;;;;5084105;28;20051;-77
2022/04/26 13:00:47;;;;;;;4.18;2.60;;;;;;;;;;5068349;28;20050;-78
2022/04/26 13:03:17;;;;;;;7.72;3.08;;;;;;;;;;5086451;28;20024;-77
2022/04/26 13:05:51;;;;;;;3.58;2.70;;;;;;;;;;5083813;28;20032;-79
2022/04/26 13:08:20;;;;;;;4.45;2.45;;;;;;;;;;5084659;28;20067;-80
2022/04/26 13:11:17;;;;;;;;;;;;;;;;;;;;;
2022/04/26 13:13:35;;;;;;;7.00;2.90;;;;;;;;;;5084487;28;20043;-77
2022/04/26 13:16:02;;;;;;;3.60;2.50;;;;;;;;;;5084913;28;20108;-76
2022/04/26 13:18:29;;;;;;;7.88;3.20;;;;;;;;;;5085878;28;20039;-76
2022/04/26 13:20:58;;;;;;;4.80;2.40;;;;;;;;;;5086120;28;20116;-78
2022/04/26 13:23:26;;;;;;;23.95;4.47;;;;;;;;;;5084103;28;20073;-78
2022/04/26 13:25:57;;;;;;;7.15;3.60;;;;;;;;;;5081982;28;20040;-77
2022/04/26 13:28:23;;;;;;;;;;;;;;;;;;5088329;28;20050;-77
2022/04/26 13:30:48;;;;;;;8.32;3.90;;;;;;;;;;5083705;28;19923;-79
2022/04/26 13:33:14;;;;;;;3.75;2.95;;;;;;;;;;5085516;28;20570;-77
2022/04/26 13:35:40;;;;;;;3.40;3.10;;;;;;;;;;5082861;28;20039;-78
2022/04/26 13:38:07;;;;;;;5.70;3.70;;;;;;;;;;5079787;28;20033;-79
2022/04/26 13:40:34;;;;;;;4.68;2.78;;;;;;;;;;5085335;28;20445;-78
2022/04/26 13:42:59;;;;;;;4.68;3.13;;;;;;;;;;5074944;28;20040;-80
2022/04/26 13:45:25;;;;;;;3.78;3.10;;;;;;;;;;5080747;28;20039;-77
2022/04/26 13:47:51;;;;;;;4.18;2.78;;;;;;;;;;5087244;28;20047;-79
2022/04/26 13:50:20;;;;;;;3.42;3.03;;;;;;;;;;5084272;28;20041;-79
2022/04/26 13:52:47;;;;;;;3.38;2.60;;;;;;;;;;5087234;28;20462;-79
2022/04/26 13:55:34;;;;;;;23.20;6.45;;;;;;;;;;5077547;28;20029;-77
2022/04/26 13:58:00;;;;;;;3.45;2.90;;;;;;;;;;5081536;28;20104;-77
2022/04/26 14:00:30;;;;;;;5.13;2.90;;;;;;;;;;5076382;28;20439;-79
2022/04/26 14:02:56;;;;;;;3.10;2.60;;;;;;;;;;5074832;28;20101;-79
2022/04/26 14:05:23;;;;;;;4.68;3.60;;;;;;;;;;5075937;28;20036;-81
2022/04/26 14:07:49;;;;;;;4.35;3.10;;;;;;;;;;5082646;28;20506;-78
2022/04/26 14:10:15;;;;;;;4.63;3.63;;;;;;;;;;5075868;28;20032;-80
2022/04/26 14:12:41;;;;;;;5.43;3.90;;;;;;;;;;5080117;28;20081;-77
2022/04/26 14:23:28;;;;;;;48.97;7.28;;;;;;;;;;5083127;28;20089;-79
2022/04/26 14:25:54;;;;;;;8.52;4.50;;;;;;;;;;5086843;28;20123;-78
2022/04/26 14:28:19;;;;;;;6.68;3.92;;;;;;;;;;5085583;28;20031;-77
2022/04/26 14:30:45;;;;;;;8.20;3.60;;;;;;;;;;5084286;28;20032;-79
2022/04/26 14:33:14;;;;;;;6.50;4.38;;;;;;;;;;5083569;28;20075;-78
2022/04/26 14:35:40;;;;;;;6.25;4.10;;;;;;;;;;5088669;28;20032;-76
2022/04/26 14:38:06;;;;;;;6.40;4.88;;;;;;;;;;5087750;28;20031;-78
2022/04/26 14:40:32;;;;;;;4.30;3.40;;;;;;;;;;5078422;28;20031;-80
2022/04/26 14:42:58;;;;;;;8.75;4.10;;;;;;;;;;5087364;28;20036;-79
2022/04/26 14:45:24;;;;;;;6.97;3.78;;;;;;;;;;5081108;28;20051;-79
2022/04/26 14:47:50;;;;;;;8.95;4.05;;;;;;;;;;5076375;28;20476;-75
2022/04/26 14:50:18;;;;;;;7.43;5.00;;;;;;;;;;5087694;28;20036;-78
2022/04/26 14:52:43;;;;;;;5.25;4.53;;;;;;;;;;5081458;28;20027;-79
2022/04/26 14:55:10;;;;;;;5.35;4.85;;;;;;;;;;5083484;28;20514;-80
2022/04/26 14:57:40;;;;;;;6.10;5.13;;;;;;;;;;5083216;28;20028;-78
2022/04/26 15:00:07;;;;;;;5.85;4.93;;;;;;;;;;5078056;28;20035;-78
2022/04/26 15:02:38;;;;;;;7.15;4.63;;;;;;;;;;5089062;28;20021;-78
2022/04/26 15:05:08;;;;;;;7.97;5.82;;;;;;;;;;5088161;28;20028;-77
2022/04/26 15:10:19;;;;;;;7.10;4.95;;;;;;;;;;5087669;28;20101;-78
2022/04/26 15:18:13;;;;;;;7.03;4.70;;;;;;;;;;5089545;28;20503;-77
2022/04/26 15:20:45;;;;;;;11.52;6.40;;;;;;;;;;5087126;28;20028;-78
2022/04/26 15:23:11;;;;;;;7.45;4.65;;;;;;;;;;5076920;28;20040;-79
2022/04/26 15:25:36;;;;;;;5.95;4.20;;;;;;;;;;5089760;28;20028;-78
2022/04/26 15:28:02;;;;;;;5.03;4.53;;;;;;;;;;5089464;28;20105;-79
2022/04/26 15:30:28;;;;;;;11.10;4.72;;;;;;;;;;5087938;28;20080;-78
2022/04/26 15:32:54;;;;;;;5.00;4.10;;;;;;;;;;5089489;28;20023;-77
2022/04/26 15:35:21;;;;;;;11.27;4.50;;;;;;;;;;5088338;28;20028;-78
2022/04/26 15:37:49;;;;;;;7.15;4.03;;;;;;;;;;5087135;28;20032;-79
2022/04/26 15:40:15;;;;;;;7.53;4.45;;;;;;;;;;5089080;28;20032;-79
2022/04/26 15:42:40;;;;;;;8.55;3.60;;;;;;;;;;5087440;28;20035;-77
2022/04/26 15:45:10;;;;;;;5.35;4.25;;;;;;;;;;5087773;28;20426;-80
2022/04/26 15:47:35;;;;;;;4.32;3.30;;;;;;;;;;5088933;28;20472;-76
2022/04/26 15:50:05;;;;;;;8.00;5.57;;;;;;;;;;5087949;28;20089;-77
2022/04/26 15:52:31;;;;;;;9.35;3.83;;;;;;;;;;5074768;28;20482;-79
2022/04/26 15:54:56;;;;;;;4.75;3.50;;;;;;;;;;5087167;28;20059;-78
2022/04/26 15:57:22;;;;;;;6.25;3.50;;;;;;;;;;5086288;28;20031;-80
2022/04/26 15:59:47;;;;;;;4.25;3.38;;;;;;;;;;5088115;28;20118;-76
2022/04/26 16:02:13;;;;;;;5.30;3.13;;;;;;;;;;5088470;28;20513;-76
2022/04/26 16:04:40;;;;;;;8.48;3.88;;;;;;;;;;5088765;28;20043;-78
2022/04/26 16:07:10;;;;;;;5.40;3.28;;;;;;;;;;5087919;28;20380;-77
2022/04/26 16:20:35;;;;;;;3.58;2.90;;;;;;;;;;5092855;28;20457;-76
2022/04/26 16:23:03;;;;;;;3.60;2.85;;;;;;;;;;5092578;28;20028;-78
2022/04/26 16:25:29;;;;;;;3.22;2.90;;;;;;;;;;5091461;28;20040;-79
2022/04/26 16:27:55;;;;;;;7.88;3.42;;;;;;;;;;5091173;28;20399;-79
2022/04/26 16:30:21;;;;;;;4.72;3.03;;;;;;;;;;5092734;28;20032;-78
2022/04/26 16:32:51;;;;;;;8.13;4.13;;;;;;;;;;5092537;28;20024;-79
2022/04/26 16:35:17;;;;;;;8.50;3.80;;;;;;;;;;5091005;28;20184;-77
2022/04/26 16:37:43;;;;;;;6.20;3.75;;;;;;;;;;5092751;28;20365;-80
2022/04/26 16:40:09;;;;;;;5.85;3.10;;;;;;;;;;5092573;28;20038;-80
2022/04/26 16:42:39;;;;;;;5.85;3.35;;;;;;;;;;5092336;28;20508;-77
2022/04/26 16:45:08;;;;;;;5.53;3.92;;;;;;;;;;5091410;28;20036;-78
2022/04/26 16:47:34;;;;;;;5.13;3.60;;;;;;;;;;5091020;28;20498;-79
2022/04/26 16:50:00;;;;;;;4.55;3.25;;;;;;;;;;5091914;28;20031;-78
2022/04/26 16:52:25;;;;;;;5.25;3.40;;;;;;;;;;5089526;28;20016;-77
2022/04/26 16:54:51;;;;;;;6.05;3.95;;;;;;;;;;5090241;28;20042;-78
2022/04/26 16:57:17;;;;;;;9.18;3.95;;;;;;;;;;5090854;28;20035;-78
2022/04/26 16:59:46;;;;;;;6.45;3.88;;;;;;;;;;5092051;28;20107;-78
2022/04/26 17:02:14;;;;;;;7.78;4.70;;;;;;;;;;5093487;28;20028;-79
2022/04/26 17:04:40;;;;;;;4.35;3.70;;;;;;;;;;5090345;28;20127;-77
2022/04/26 17:07:05;;;;;;;6.00;4.13;;;;;;;;;;5086966;28;20103;-79
2022/04/26 17:09:34;;;;;;;7.30;4.05;;;;;;;;;;5091969;28;20024;-76
2022/04/26 17:12:00;;;;;;;10.85;5.43;;;;;;;;;;5073929;28;20144;-78
2022/04/26 17:14:26;;;;;;;5.43;3.97;;;;;;;;;;5091340;28;20497;-76
2022/04/26 17:16:51;;;;;;;3.90;3.50;;;;;;;;;;5091819;28;20027;-76
2022/04/26 17:19:18;;;;;;;5.38;3.95;;;;;;;;;;5089938;28;20020;-76
2022/04/26 17:21:48;;;;;;;7.28;5.18;;;;;;;;;;5088083;28;20024;-76
2022/04/26 17:27:00;;;;;;;6.78;4.47;;;;;;;;;;5080024;28;20046;-78
2022/04/26 17:29:26;;;;;;;10.70;4.88;;;;;;;;;;5089786;28;20067;-77
2022/04/26 17:31:53;;;;;;;6.90;4.47;;;;;;;;;;5091440;28;20028;-77
2022/04/26 17:34:20;;;;;;;6.78;5.30;;;;;;;;;;5091418;28;20482;-76
2022/04/26 17:36:48;;;;;;;6.20;4.68;;;;;;;;;;5084828;28;20031;-78
2022/04/26 17:39:14;;;;;;;6.70;4.93;;;;;;;;;;5087188;28;20020;-78
2022/04/26 17:41:40;;;;;;;9.63;5.30;;;;;;;;;;5090350;28;20036;-78
2022/04/26 17:44:07;;;;;;;8.93;5.93;;;;;;;;;;5090849;28;20027;-78
2022/04/26 17:46:33;;;;;;;9.57;7.43;;;;;;;;;;5090722;28;20379;-79
2022/04/26 17:48:59;;;;;;;8.35;5.82;;;;;;;;;;5089423;28;20032;-75
2022/04/26 17:51:24;;;;;;;6.35;5.07;;;;;;;;;;5090259;28;20051;-78
2022/04/26 17:56:39;;;;;;;9.02;5.60;;;;;;;;;;5091144;28;20078;-78
2022/04/26 17:59:05;;;;;;;8.05;5.57;;;;;;;;;;5089030;28;20032;-78
2022/04/26 18:01:31;;;;;;;7.20;4.93;;;;;;;;;;5091302;28;20141;-78
2022/04/26 18:03:57;;;;;;;8.30;6.18;;;;;;;;;;5088848;28;20032;-79
2022/04/26 18:06:23;;;;;;;8.23;5.80;;;;;;;;;;5090415;28;20089;-78
2022/04/26 18:08:48;;;;;;;9.05;5.60;;;;;;;;;;5090597;28;20028;-76
2022/04/26 18:11:14;;;;;;;8.63;5.68;;;;;;;;;;5089275;28;20080;-79
2022/04/26 18:13:43;;;;;;;9.45;6.18;;;;;;;;;;5088904;28;20044;-78
2022/04/26 18:16:09;;;;;;;6.40;4.72;;;;;;;;;;5088707;28;20089;-77
2022/04/26 18:18:35;;;;;;;10.57;5.35;;;;;;;;;;5088554;28;20035;-79
2022/04/26 18:21:03;;;;;;;7.07;4.97;;;;;;;;;;5088745;28;20020;-76
2022/04/26 18:23:29;;;;;;;7.03;5.03;;;;;;;;;;5089640;28;20028;-78
2022/04/26 18:28:41;;;;;;;6.88;4.97;;;;;;;;;;5082368;28;20038;-77
2022/04/26 18:31:08;;;;;;;10.93;6.38;;;;;;;;;;5090076;28;20024;-77
2022/04/26 18:33:34;;;;;;;12.45;9.05;;;;;;;;;;5089511;28;20103;-78
2022/04/26 18:35:59;;;;;;;10.02;5.82;;;;;;;;;;5088163;28;20447;-78
2022/04/26 18:38:25;;;;;;;8.05;5.65;;;;;;;;;;5088300;28;20028;-79
2022/04/26 18:40:53;;;;;;;8.18;5.40;;;;;;;;;;5088895;28;20024;-77
2022/04/26 18:43:20;;;;;;;8.85;5.30;;;;;;;;;;5087811;28;20031;-79
2022/04/26 18:45:45;;;;;;;8.50;5.20;;;;;;;;;;5090423;28;20024;-78
2022/04/26 18:48:11;;;;;;;7.63;5.63;;;;;;;;;;5088248;28;20034;-76
2022/04/26 18:50:37;;;;;;;7.97;5.63;;;;;;;;;;5089768;28;20040;-77
2022/04/26 18:53:02;;;;;;;10.60;6.70;;;;;;;;;;5090389;28;20024;-79
2022/04/26 18:55:28;;;;;;;10.20;5.97;;;;;;;;;;5088405;28;20028;-78
2022/04/26 18:57:53;;;;;;;11.40;6.15;;;;;;;;;;5090417;28;20039;-78
2022/04/26 19:00:22;;;;;;;9.30;6.18;;;;;;;;;;5089190;28;20103;-79
2022/04/26 19:02:47;;;;;;;10.60;6.38;;;;;;;;;;5089919;28;20045;-79
2022/04/26 19:05:13;;;;;;;9.80;6.10;;;;;;;;;;5089868;28;20542;-77
2022/04/26 19:07:38;;;;;;;10.10;6.05;;;;;;;;;;5089837;28;20032;-78
2022/04/26 19:12:48;;;;;;;12.45;6.90;;;;;;;;;;5090287;28;20047;-79
2022/04/26 19:15:14;;;;;;;9.20;6.38;;;;;;;;;;5088773;28;20027;-77
2022/04/26 19:17:39;;;;;;;12.05;6.72;;;;;;;;;;5090049;28;20384;-78